Terminal Aerodrome Forecast
Issued by NWS

Home | Current Version | Previous Version | Text Only | Print | Product List | Glossary On
Versions: 1 2 3 4 5 6 7 8 9 10 11 12 13 14 15 16 17 18
648
FTUS43 KAPX 081011 AAA
TAFTVC
TAF AMD
KTVC 081011Z 0810/0906 VRB03KT P6SM BKN040
     FM082100 27003KT P6SM OVC018
     FM090100 33010G18KT 3SM -SHSN BR OVC009=

USA.gov is the U.S. government's official web portal to all federal, state and local government web resources and services.